createdAt,value
2022-12-06T00:01:28.980Z,101773.69
2022-12-06T00:03:58.959Z,101767.44
2022-12-06T00:06:30.089Z,101768.81
2022-12-06T00:08:59.291Z,101762.59
2022-12-06T00:11:29.521Z,101763.84
2022-12-06T00:14:00.231Z,101766.50
2022-12-06T00:16:28.894Z,101764.69
2022-12-06T00:18:57.627Z,101761.06
2022-12-06T00:21:28.322Z,101765.22
2022-12-06T00:23:58.356Z,101756.38
2022-12-06T00:26:27.081Z,101759.69
2022-12-06T00:28:58.901Z,101759.41
2022-12-06T00:31:28.936Z,101761.88
2022-12-06T00:33:57.088Z,101761.03
2022-12-06T00:36:27.465Z,101756.34
2022-12-06T00:38:54.744Z,101757.00
2022-12-06T00:41:24.563Z,101757.84
2022-12-06T00:43:52.912Z,101757.84
2022-12-06T00:46:24.562Z,101758.53
2022-12-06T00:48:53.514Z,101757.41
2022-12-06T00:51:23.527Z,101762.66
2022-12-06T00:53:51.573Z,101758.09
2022-12-06T00:56:19.754Z,101752.66
2022-12-06T00:58:47.412Z,101755.97
2022-12-06T01:01:17.441Z,101750.44
2022-12-06T01:03:46.889Z,101755.44
2022-12-06T01:06:15.929Z,101752.50
2022-12-06T01:08:43.725Z,101756.50
2022-12-06T01:11:13.895Z,101759.81
2022-12-06T01:13:41.388Z,101758.69
2022-12-06T01:16:12.389Z,101752.31
2022-12-06T01:18:41.229Z,101752.81
2022-12-06T01:21:13.455Z,101746.44
2022-12-06T01:23:40.450Z,101747.84
2022-12-06T01:26:14.295Z,101741.28
2022-12-06T01:28:41.228Z,101749.84
2022-12-06T01:31:09.214Z,101743.63
2022-12-06T01:33:36.206Z,101743.31
2022-12-06T01:36:03.611Z,101741.38
2022-12-06T01:38:32.229Z,101743.69
2022-12-06T01:40:59.550Z,101745.50
2022-12-06T01:43:36.070Z,101736.78
2022-12-06T01:46:12.981Z,101745.50
2022-12-06T01:48:41.789Z,101739.41
2022-12-06T01:51:13.298Z,101738.31
2022-12-06T01:53:45.386Z,101737.47
2022-12-06T01:56:13.517Z,101738.31
2022-12-06T01:58:45.025Z,101741.59
2022-12-06T02:01:12.342Z,101743.41
2022-12-06T02:03:40.068Z,101739.81
2022-12-06T02:06:09.362Z,101737.19
2022-12-06T02:08:38.198Z,101734.66
2022-12-06T02:11:08.481Z,101736.47
2022-12-06T02:13:37.202Z,101732.88
2022-12-06T02:16:26.342Z,101733.84
2022-12-06T02:19:00.777Z,101730.25
2022-12-06T02:21:41.116Z,101735.66
2022-12-06T02:25:04.580Z,101727.22
2022-12-06T02:28:25.446Z,101723.91
2022-12-06T02:31:00.006Z,101723.63
2022-12-06T02:33:39.903Z,101723.63
2022-12-06T02:36:17.158Z,101728.72
2022-12-06T02:38:48.900Z,101720.00
2022-12-06T02:41:24.160Z,101716.41
2022-12-06T02:44:00.622Z,101717.25
2022-12-06T02:46:34.822Z,101714.63
2022-12-06T02:49:07.004Z,101715.41
2022-12-06T02:51:37.406Z,101712.78
2022-12-06T02:54:09.997Z,101712.78
2022-12-06T02:56:37.056Z,101707.50
2022-12-06T02:59:05.544Z,101703.09
2022-12-06T03:01:40.932Z,101710.03
2022-12-06T03:04:46.528Z,101710.03
2022-12-06T03:07:37.620Z,101704.88
2022-12-06T03:10:29.452Z,101719.72
2022-12-06T03:13:21.205Z,101710.03
2022-12-06T03:16:00.014Z,101712.50
2022-12-06T03:18:37.216Z,101712.50
2022-12-06T03:21:10.543Z,101712.50
2022-12-06T03:23:41.826Z,101714.16
2022-12-06T03:26:16.818Z,101714.97
2022-12-06T03:28:48.379Z,101719.09
2022-12-06T03:31:16.357Z,101719.09
2022-12-06T03:33:52.995Z,101719.09
2022-12-06T03:36:21.867Z,101718.97
2022-12-06T03:38:55.134Z,101717.16
2022-12-06T03:41:30.682Z,101709.41
2022-12-06T03:43:59.803Z,101708.44
2022-12-06T03:46:33.854Z,101711.91
2022-12-06T03:49:09.841Z,101716.16
2022-12-06T03:51:39.551Z,101709.94
2022-12-06T03:54:08.401Z,101708.28
2022-12-06T03:56:37.906Z,101710.06
2022-12-06T03:59:05.261Z,101710.91
2022-12-06T04:01:32.383Z,101711.91
2022-12-06T04:03:59.693Z,101714.38
2022-12-06T04:06:28.314Z,101709.09
2022-12-06T04:09:15.496Z,101703.69
2022-12-06T04:11:42.685Z,101707.31
2022-12-06T04:14:09.671Z,101701.88
2022-12-06T04:16:55.406Z,101704.34
2022-12-06T04:19:22.398Z,101697.44
2022-12-06T04:22:09.181Z,101693.03
2022-12-06T04:24:36.113Z,101697.44
2022-12-06T04:27:21.562Z,101701.88
2022-12-06T04:30:07.079Z,101692.47
2022-12-06T04:32:52.569Z,101693.47
2022-12-06T04:35:38.064Z,101694.44
2022-12-06T04:38:25.189Z,101693.59
2022-12-06T04:40:52.133Z,101688.34
2022-12-06T04:43:42.410Z,101686.38
2022-12-06T04:46:09.862Z,101683.91
2022-12-06T04:48:37.309Z,101681.28
2022-12-06T04:51:04.902Z,101682.25
2022-12-06T04:53:33.377Z,101678.94
2022-12-06T04:56:01.608Z,101680.75
2022-12-06T04:58:28.573Z,101683.38
2022-12-06T05:00:55.875Z,101673.69
2022-12-06T05:03:23.045Z,101676.97
2022-12-06T05:05:50.395Z,101676.84
2022-12-06T05:08:17.435Z,101680.31
2022-12-06T05:10:49.591Z,101677.53
2022-12-06T05:13:17.978Z,101675.06
2022-12-06T05:15:51.221Z,101670.75
2022-12-06T05:18:18.482Z,101672.41
2022-12-06T05:20:46.058Z,101676.69
2022-12-06T05:23:14.004Z,101672.53
2022-12-06T05:25:41.518Z,101668.13
2022-12-06T05:28:10.194Z,101675.34
2022-12-06T05:30:37.251Z,101673.69
2022-12-06T05:33:04.187Z,101678.09
2022-12-06T05:35:31.189Z,101679.25
2022-12-06T05:37:58.110Z,101673.16
2022-12-06T05:40:25.048Z,101665.41
2022-12-06T05:42:52.053Z,101674.28
2022-12-06T05:45:20.405Z,101667.38
2022-12-06T05:47:47.408Z,101668.34
2022-12-06T05:50:14.382Z,101665.72
2022-12-06T05:52:41.771Z,101667.38
2022-12-06T05:55:09.235Z,101669.03
2022-12-06T05:57:36.202Z,101665.41
2022-12-06T06:00:06.102Z,101671.78
2022-12-06T06:02:34.467Z,101671.00
2022-12-06T06:05:01.503Z,101669.31
2022-12-06T06:07:29.443Z,101682.66
2022-12-06T06:09:56.391Z,101669.63
2022-12-06T06:12:23.423Z,101677.50
2022-12-06T06:14:50.489Z,101680.00
2022-12-06T06:17:17.704Z,101675.41
2022-12-06T06:19:51.162Z,101676.25
2022-12-06T06:22:19.878Z,101677.88
2022-12-06T06:24:47.135Z,101678.72
2022-12-06T06:27:14.562Z,101683.16
2022-12-06T06:29:45.319Z,101687.59
2022-12-06T06:32:13.576Z,101679.84
2022-12-06T06:34:40.630Z,101675.25
2022-12-06T06:37:08.925Z,101677.75
2022-12-06T06:39:35.898Z,101675.94
2022-12-06T06:42:02.987Z,101680.22
2022-12-06T06:44:29.900Z,101679.41
2022-12-06T06:46:56.859Z,101682.88
2022-12-06T06:49:24.595Z,101686.47
2022-12-06T06:51:51.557Z,101684.53
2022-12-06T06:54:20.080Z,101685.50
2022-12-06T06:56:47.021Z,101687.16
2022-12-06T06:59:13.974Z,101688.97
2022-12-06T07:01:41.132Z,101691.44
2022-12-06T07:04:08.168Z,101683.53
2022-12-06T07:06:35.230Z,101691.44
2022-12-06T07:09:02.275Z,101695.06
2022-12-06T07:11:30.604Z,101695.06
2022-12-06T07:13:57.602Z,101698.50
2022-12-06T07:16:24.643Z,101700.00
2022-12-06T07:18:51.763Z,101701.50
2022-12-06T07:21:18.859Z,101698.88
2022-12-06T07:23:45.865Z,101699.03
2022-12-06T07:26:15.303Z,101698.88
2022-12-06T07:28:46.823Z,101704.13
2022-12-06T07:31:16.681Z,101696.91
2022-12-06T07:33:44.754Z,101707.16
2022-12-06T07:36:14.216Z,101704.34
2022-12-06T07:38:43.107Z,101711.28
2022-12-06T07:41:32.376Z,101706.03
2022-12-06T07:44:21.335Z,101706.31
2022-12-06T07:46:48.950Z,101707.16
2022-12-06T07:49:17.399Z,101709.63
2022-12-06T07:51:45.701Z,101705.72
2022-12-06T07:54:13.701Z,101711.66
2022-12-06T07:56:41.123Z,101705.56
2022-12-06T07:59:09.963Z,101708.34
2022-12-06T08:01:37.156Z,101704.06
2022-12-06T08:04:06.431Z,101710.31
2022-12-06T08:06:34.693Z,101712.13
2022-12-06T08:09:01.965Z,101707.38
2022-12-06T08:11:29.165Z,101712.50
2022-12-06T08:13:56.949Z,101718.94
2022-12-06T08:16:25.338Z,101715.34
2022-12-06T08:18:52.652Z,101719.94
2022-12-06T08:21:19.766Z,101724.38
2022-12-06T08:23:46.993Z,101724.38
2022-12-06T08:26:18.739Z,101719.56
2022-12-06T08:28:46.180Z,101723.16
2022-12-06T08:31:16.345Z,101717.38
2022-12-06T08:33:47.791Z,101721.81
2022-12-06T08:36:20.048Z,101721.81
2022-12-06T08:38:48.038Z,101724.44
2022-12-06T08:41:34.573Z,101724.28
2022-12-06T08:44:03.606Z,101726.63
2022-12-06T08:46:35.302Z,101720.91
2022-12-06T08:49:04.097Z,101728.50
2022-12-06T08:51:34.339Z,101720.31
2022-12-06T08:54:02.140Z,101721.66
2022-12-06T08:56:29.235Z,101731.91
2022-12-06T08:58:56.764Z,101731.56
2022-12-06T09:01:30.168Z,101726.31
2022-12-06T09:04:00.570Z,101724.66
2022-12-06T09:06:29.842Z,101724.00
2022-12-06T09:08:58.350Z,101716.91
2022-12-06T09:11:26.448Z,101715.47
2022-12-06T09:13:53.492Z,101723.75
2022-12-06T09:16:23.533Z,101723.44
2022-12-06T09:18:51.661Z,101718.19
2022-12-06T09:21:21.932Z,101724.41
2022-12-06T09:23:51.264Z,101723.75
2022-12-06T09:26:18.364Z,101727.34
2022-12-06T09:28:51.453Z,101722.06
2022-12-06T09:31:19.299Z,101724.78
2022-12-06T09:33:46.745Z,101728.47
2022-12-06T09:36:19.543Z,101724.53
2022-12-06T09:38:55.247Z,101728.53
2022-12-06T09:42:15.586Z,101722.72
2022-12-06T09:45:24.713Z,101725.00
2022-12-06T09:48:34.634Z,101731.38
2022-12-06T09:51:17.966Z,101729.97
2022-12-06T09:54:11.262Z,101729.97
2022-12-06T09:56:47.386Z,101729.78
2022-12-06T09:59:27.713Z,101723.56
2022-12-06T10:02:23.476Z,101722.22
2022-12-06T10:05:20.250Z,101725.81
2022-12-06T10:08:04.413Z,101732.59
2022-12-06T10:10:51.830Z,101718.28
2022-12-06T10:13:34.244Z,101729.19
2022-12-06T10:16:15.775Z,101725.44
2022-12-06T10:19:08.274Z,101722.63
2022-12-06T10:21:49.569Z,101715.25
2022-12-06T10:24:42.336Z,101717.56
2022-12-06T10:27:14.688Z,101711.31
2022-12-06T10:29:55.220Z,101710.84
2022-12-06T10:32:53.138Z,101700.84
2022-12-06T10:35:39.789Z,101694.72
2022-12-06T10:38:22.915Z,101697.84
2022-12-06T10:41:03.137Z,101699.34
2022-12-06T10:43:46.585Z,101694.91
2022-12-06T10:46:42.451Z,101699.06
2022-12-06T10:49:22.536Z,101704.63
2022-12-06T10:52:00.581Z,101699.69
2022-12-06T10:54:36.154Z,101699.69
2022-12-06T10:57:15.370Z,101692.75
2022-12-06T10:59:54.480Z,101688.44
2022-12-06T11:02:31.585Z,101696.69
2022-12-06T11:05:09.041Z,101685.63
2022-12-06T11:07:43.189Z,101687.59
2022-12-06T11:10:20.354Z,101680.66
2022-12-06T11:12:54.738Z,101681.50
2022-12-06T11:15:29.294Z,101686.75
2022-12-06T11:18:07.608Z,101683.16
2022-12-06T11:20:44.454Z,101676.22
2022-12-06T11:23:21.545Z,101685.78
2022-12-06T11:26:04.965Z,101682.63
2022-12-06T11:28:38.272Z,101679.50
2022-12-06T11:31:24.406Z,101686.88
2022-12-06T11:33:53.755Z,101678.13
2022-12-06T11:36:22.075Z,101685.22
2022-12-06T11:38:49.107Z,101681.75
2022-12-06T11:41:25.008Z,101681.75
2022-12-06T11:43:54.115Z,101678.13
2022-12-06T11:46:24.935Z,101678.47
2022-12-06T11:48:53.725Z,101665.28
2022-12-06T11:51:23.582Z,101663.63
2022-12-06T11:54:06.459Z,101662.28
2022-12-06T11:56:38.784Z,101666.72
2022-12-06T11:59:28.368Z,101667.84
2022-12-06T12:01:58.748Z,101663.91
2022-12-06T12:04:34.056Z,101656.72
2022-12-06T12:07:11.351Z,101650.31
2022-12-06T12:09:50.900Z,101652.78
2022-12-06T12:12:22.060Z,101645.53
2022-12-06T12:14:56.630Z,101649.13
2022-12-06T12:17:32.156Z,101646.38
2022-12-06T12:20:06.084Z,101641.94
2022-12-06T12:22:40.786Z,101638.28
2022-12-06T12:25:26.431Z,101640.94
2022-12-06T12:27:58.580Z,101644.91
2022-12-06T12:30:33.141Z,101635.84
2022-12-06T12:33:22.798Z,101638.19
2022-12-06T12:35:54.985Z,101639.19
2022-12-06T12:38:37.874Z,101634.75
2022-12-06T12:41:23.492Z,101635.06
2022-12-06T12:44:35.384Z,101629.78
2022-12-06T12:46:55.032Z,101629.66
2022-12-06T12:49:30.914Z,101633.09
2022-12-06T12:52:00.086Z,101632.44
2022-12-06T12:54:32.241Z,101634.09
2022-12-06T12:57:05.132Z,101632.59
2022-12-06T12:59:40.634Z,101628.78
2022-12-06T13:02:21.494Z,101626.44
2022-12-06T13:05:11.133Z,101622.19
2022-12-06T13:07:43.564Z,101618.88
2022-12-06T13:10:23.385Z,101615.56
2022-12-06T13:12:55.986Z,101615.56
2022-12-06T13:15:33.330Z,101612.25
2022-12-06T13:18:11.654Z,101611.75
2022-12-06T13:20:41.284Z,101607.31
2022-12-06T13:23:14.083Z,101611.59
2022-12-06T13:25:46.904Z,101607.97
2022-12-06T13:28:21.354Z,101605.03
2022-12-06T13:30:59.338Z,101603.72
2022-12-06T13:33:31.995Z,101612.34
2022-12-06T13:36:07.407Z,101601.16
2022-12-06T13:38:37.476Z,101600.53
2022-12-06T13:41:06.489Z,101593.28
2022-12-06T13:43:54.859Z,101591.31
2022-12-06T13:46:37.405Z,101591.31
2022-12-06T13:49:24.796Z,101589.97
2022-12-06T13:51:53.403Z,101592.28
2022-12-06T13:54:32.851Z,101588.09
2022-12-06T13:57:24.012Z,101595.81
2022-12-06T13:59:51.442Z,101592.16
2022-12-06T14:02:49.168Z,101595.75
2022-12-06T14:06:14.037Z,101609.88
2022-12-06T14:08:46.872Z,101609.16
2022-12-06T14:11:21.386Z,101609.16
2022-12-06T14:14:03.346Z,101609.16
2022-12-06T14:16:38.178Z,101612.50
2022-12-06T14:19:17.896Z,101603.28
2022-12-06T14:21:53.866Z,101595.09
2022-12-06T14:24:33.203Z,101598.53
2022-12-06T14:27:12.664Z,101594.38
2022-12-06T14:29:40.898Z,101593.25
2022-12-06T14:32:08.522Z,101604.31
2022-12-06T14:34:37.428Z,101593.47
2022-12-06T14:37:19.650Z,101601.03
2022-12-06T14:39:54.965Z,101592.34
2022-12-06T14:42:41.215Z,101596.78
2022-12-06T14:45:15.817Z,101582.41
2022-12-06T14:47:45.131Z,101578.63
2022-12-06T14:50:28.261Z,101576.16
2022-12-06T14:53:03.610Z,101585.22
2022-12-06T14:55:34.860Z,101582.53
2022-12-06T14:58:14.103Z,101581.19
2022-12-06T15:00:53.789Z,101580.84
2022-12-06T15:03:30.593Z,101588.06
2022-12-06T15:06:15.768Z,101582.13
2022-12-06T15:08:44.541Z,101584.59
2022-12-06T15:11:52.615Z,101586.88
2022-12-06T15:14:25.524Z,101590.47
2022-12-06T15:17:00.436Z,101587.19
2022-12-06T15:19:30.486Z,101584.41
2022-12-06T15:21:59.622Z,101589.34
2022-12-06T15:24:29.115Z,101591.00
2022-12-06T15:26:57.794Z,101588.06
2022-12-06T15:29:24.982Z,101585.94
2022-12-06T15:31:54.818Z,101585.94
2022-12-06T15:34:28.408Z,101578.19
2022-12-06T15:37:15.549Z,101579.34
2022-12-06T15:39:44.124Z,101577.16
2022-12-06T15:42:20.074Z,101574.19
2022-12-06T15:44:49.943Z,101571.34
2022-12-06T15:47:20.060Z,101577.09
2022-12-06T15:49:48.806Z,101567.16
2022-12-06T15:52:18.253Z,101568.44
2022-12-06T15:54:45.553Z,101568.75
2022-12-06T15:57:14.682Z,101561.16
2022-12-06T15:59:41.720Z,101568.72
2022-12-06T16:02:15.558Z,101569.00
2022-12-06T16:04:43.624Z,101573.44
2022-12-06T16:07:10.823Z,101565.72
2022-12-06T16:09:38.162Z,101564.03
2022-12-06T16:12:05.820Z,101569.59
2022-12-06T16:14:34.152Z,101568.81
2022-12-06T16:17:01.080Z,101566.31
2022-12-06T16:19:47.974Z,101566.31
2022-12-06T16:22:15.095Z,101561.03
2022-12-06T16:24:42.071Z,101559.00
2022-12-06T16:27:09.326Z,101547.41
2022-12-06T16:29:37.838Z,101550.31
2022-12-06T16:32:05.185Z,101554.25
2022-12-06T16:34:32.161Z,101549.28
2022-12-06T16:37:02.162Z,101549.94
2022-12-06T16:39:31.892Z,101555.78
2022-12-06T16:41:59.676Z,101554.44
2022-12-06T16:44:27.002Z,101560.31
2022-12-06T16:46:55.747Z,101557.34
2022-12-06T16:52:12.517Z,101568.16
2022-12-06T16:54:42.615Z,101568.28
2022-12-06T16:57:11.255Z,101563.19
2022-12-06T16:59:38.270Z,101556.97
2022-12-06T17:02:26.532Z,101558.22
2022-12-06T17:04:54.849Z,101558.91
2022-12-06T17:07:22.113Z,101553.50
2022-12-06T17:09:49.221Z,101557.34
2022-12-06T17:12:16.628Z,101555.22
2022-12-06T17:14:44.168Z,101553.09
2022-12-06T17:17:15.198Z,101550.63
2022-12-06T17:19:43.262Z,101549.78
2022-12-06T17:22:11.824Z,101548.97
2022-12-06T17:24:39.318Z,101550.63
2022-12-06T17:27:08.710Z,101548.16
2022-12-06T17:29:36.452Z,101540.41
2022-12-06T17:32:03.645Z,101536.28
2022-12-06T17:34:32.044Z,101542.69
2022-12-06T17:36:59.890Z,101530.94
2022-12-06T17:39:26.933Z,101537.16
2022-12-06T17:42:12.634Z,101535.25
2022-12-06T17:44:39.919Z,101525.03
2022-12-06T17:47:07.126Z,101522.38
2022-12-06T17:49:36.126Z,101514.50
2022-12-06T17:52:03.889Z,101514.78
2022-12-06T17:54:30.843Z,101515.09
2022-12-06T17:56:57.958Z,101517.59
2022-12-06T17:59:27.803Z,101512.47
2022-12-06T18:02:14.615Z,101515.38
2022-12-06T18:04:43.847Z,101513.34
2022-12-06T18:07:11.811Z,101512.97
2022-12-06T18:09:39.299Z,101516.88
2022-12-06T18:12:08.995Z,101512.59
2022-12-06T18:14:35.963Z,101507.00
2022-12-06T18:17:03.417Z,101508.91
2022-12-06T18:19:31.808Z,101507.28
2022-12-06T18:22:01.528Z,101505.63
2022-12-06T18:24:35.289Z,101508.41
2022-12-06T18:27:04.011Z,101513.78
2022-12-06T18:29:31.071Z,101515.09
2022-12-06T18:31:58.242Z,101500.75
2022-12-06T18:34:25.479Z,101495.78
2022-12-06T18:36:52.449Z,101505.75
2022-12-06T18:39:24.507Z,101505.25
2022-12-06T18:41:52.674Z,101497.19
2022-12-06T18:44:19.919Z,101496.63
2022-12-06T18:46:47.001Z,101485.78
2022-12-06T18:49:14.815Z,101486.31
2022-12-06T18:51:42.291Z,101490.75
2022-12-06T18:54:13.445Z,101491.03
2022-12-06T18:56:42.647Z,101485.41
2022-12-06T18:59:11.484Z,101491.94
2022-12-06T19:01:40.557Z,101483.41
2022-12-06T19:04:14.151Z,101481.72
2022-12-06T19:06:43.037Z,101486.19
2022-12-06T19:09:14.661Z,101480.09
2022-12-06T19:11:46.069Z,101479.81
2022-12-06T19:14:14.763Z,101479.19
2022-12-06T19:16:44.814Z,101478.91
2022-12-06T19:19:18.570Z,101478.91
2022-12-06T19:21:47.214Z,101485.50
2022-12-06T19:24:17.766Z,101474.69
2022-12-06T19:26:46.381Z,101476.69
2022-12-06T19:29:16.242Z,101485.25
2022-12-06T19:31:45.044Z,101480.38
2022-12-06T19:34:17.997Z,101486.47
2022-12-06T19:36:45.733Z,101486.47
2022-12-06T19:39:13.954Z,101474.59
2022-12-06T19:42:00.742Z,101472.81
2022-12-06T19:44:30.513Z,101474.06
2022-12-06T19:46:58.315Z,101463.56
2022-12-06T19:49:27.011Z,101457.63
2022-12-06T19:51:54.222Z,101453.03
2022-12-06T19:54:24.899Z,101447.47
2022-12-06T19:56:54.772Z,101450.78
2022-12-06T19:59:23.616Z,101443.88
2022-12-06T20:01:54.070Z,101438.31
2022-12-06T20:04:24.870Z,101436.66
2022-12-06T20:06:53.336Z,101437.63
2022-12-06T20:09:40.259Z,101438.09
2022-12-06T20:12:07.824Z,101433.13
2022-12-06T20:14:38.733Z,101426.06
2022-12-06T20:17:11.971Z,101424.28
2022-12-06T20:19:40.277Z,101423.16
2022-12-06T20:22:07.249Z,101435.31
2022-12-06T20:24:34.238Z,101434.16
2022-12-06T20:27:01.795Z,101425.63
2022-12-06T20:29:29.902Z,101419.53
2022-12-06T20:31:59.353Z,101409.19
2022-12-06T20:34:34.065Z,101409.34
2022-12-06T20:37:03.806Z,101412.78
2022-12-06T20:39:33.008Z,101407.97
2022-12-06T20:42:02.817Z,101404.69
2022-12-06T20:44:30.731Z,101399.72
2022-12-06T20:46:57.900Z,101401.69
2022-12-06T20:49:24.989Z,101398.09
2022-12-06T20:51:53.912Z,101397.91
2022-12-06T20:54:23.268Z,101392.53
2022-12-06T20:56:53.394Z,101394.16
2022-12-06T20:59:20.978Z,101397.78
2022-12-06T21:01:48.725Z,101397.78
2022-12-06T21:04:16.682Z,101397.78
2022-12-06T21:06:43.864Z,101396.94
2022-12-06T21:09:12.296Z,101394.31
2022-12-06T21:11:39.873Z,101400.41
2022-12-06T21:14:06.887Z,101403.03
2022-12-06T21:16:35.527Z,101397.78
2022-12-06T21:19:05.184Z,101395.81
2022-12-06T21:21:35.143Z,101397.16
2022-12-06T21:24:05.122Z,101388.31
2022-12-06T21:26:35.030Z,101392.56
2022-12-06T21:29:02.653Z,101386.34
2022-12-06T21:31:32.711Z,101380.78
2022-12-06T21:33:59.838Z,101380.47
2022-12-06T21:36:27.355Z,101374.06
2022-12-06T21:38:55.131Z,101369.47
2022-12-06T21:41:22.496Z,101381.50
2022-12-06T21:43:50.843Z,101373.59
2022-12-06T21:46:21.452Z,101372.94
2022-12-06T21:48:51.343Z,101366.03
2022-12-06T21:51:19.704Z,101362.41
2022-12-06T21:53:46.982Z,101352.56
2022-12-06T21:56:19.174Z,101348.97
2022-12-06T21:58:48.391Z,101342.72
2022-12-06T22:01:20.239Z,101341.75
2022-12-06T22:03:49.227Z,101338.81
2022-12-06T22:06:16.656Z,101335.72
2022-12-06T22:08:45.586Z,101338.56
2022-12-06T22:11:16.092Z,101350.41
2022-12-06T22:13:43.602Z,101342.22
2022-12-06T22:16:12.287Z,101354.41
2022-12-06T22:18:45.407Z,101352.72
2022-12-06T22:21:16.690Z,101353.72
2022-12-06T22:23:45.733Z,101351.09
2022-12-06T22:26:16.342Z,101352.72
2022-12-06T22:28:43.471Z,101345.66
2022-12-06T22:31:13.119Z,101351.09
2022-12-06T22:33:42.406Z,101343.88
2022-12-06T22:36:10.434Z,101350.75
2022-12-06T22:38:37.671Z,101357.38
2022-12-06T22:41:06.052Z,101351.78
2022-12-06T22:43:33.769Z,101345.25
2022-12-06T22:46:05.219Z,101337.19
2022-12-06T22:48:32.622Z,101335.03
2022-12-06T22:51:13.624Z,101324.50
2022-12-06T22:53:43.312Z,101317.31
2022-12-06T22:56:11.252Z,101310.38
2022-12-06T22:58:38.746Z,101318.94
2022-12-06T23:01:15.995Z,101323.91
2022-12-06T23:03:44.476Z,101313.06
2022-12-06T23:06:13.823Z,101311.09
2022-12-06T23:08:41.114Z,101314.38
2022-12-06T23:11:11.676Z,101319.34
2022-12-06T23:13:38.980Z,101320.97
2022-12-06T23:16:10.562Z,101313.72
2022-12-06T23:18:37.612Z,101304.69
2022-12-06T23:21:08.953Z,101308.16
2022-12-06T23:23:39.867Z,101308.16
2022-12-06T23:26:09.274Z,101300.13
2022-12-06T23:28:37.160Z,101294.66
2022-12-06T23:31:06.650Z,101297.31
2022-12-06T23:33:34.548Z,101290.38
2022-12-06T23:36:07.869Z,101283.47
2022-12-06T23:38:37.262Z,101280.19
2022-12-06T23:41:07.183Z,101277.56
2022-12-06T23:43:36.157Z,101281.81
2022-12-06T23:46:07.792Z,101274.94
2022-12-06T23:48:35.592Z,101271.59
2022-12-06T23:51:05.715Z,101279.19
2022-12-06T23:53:34.085Z,101271.75
2022-12-06T23:56:08.403Z,101275.56
2022-12-06T23:58:36.465Z,101258.09
